Koosah.INFO

KSEA Weather Observatons

This table shows observations taken by aircraft in the Seattle, WA, US area since 2018-12-16T23:37:45-0800. By default, it is sorted by time observed in ascending order. Click on a column heading to sort by that column instead. Click again on the same column heading to sort in descending order.

Show observations taken in the last:

Return to main page.

Time Observed Time Received Altitude (ft) Latitude Longitude Temperature (˚C) Wind Direction Wind speed (kn) Frequency (MHz) Source
2018-12-17T00:27:00-0800 2018-12-17T00:28:59-0800 22305 47.7302 -122.9358 -38.0 (missing) (missing) 130.025 .N627AS
2018-12-17T00:22:00-0800 2018-12-17T00:23:59-0800 9873 47.3196 -122.473 -9.0 (missing) (missing) 130.025 .N627AS
2018-12-17T00:03:00-0800 2018-12-17T00:04:13-0800 21976 47.555 -121.214 -31.0 (missing) (missing) 130.025 .N303AS
2018-12-16T23:52:00-0800 2018-12-16T23:53:26-0800 830 47.4391 -122.3082 9.0 172 12 130.025 .N303AS
2018-12-16T23:52:00-0800 2018-12-16T23:53:26-0800 1150 47.4348 -122.3083 8.7 188 19 130.025 .N303AS
2018-12-16T23:53:00-0800 2018-12-16T23:54:38-0800 2915 47.3833 -122.3094 4.5 214 20 130.025 .N303AS
2018-12-16T23:54:00-0800 2018-12-16T23:54:38-0800 3046 47.3775 -122.3094 4.2 218 21 130.025 .N303AS
2018-12-16T23:53:00-0800 2018-12-16T23:54:38-0800 2772 47.3888 -122.3092 4.7 214 23 130.025 .N303AS
2018-12-16T23:52:00-0800 2018-12-16T23:53:26-0800 1462 47.4305 -122.3083 8.5 194 24 130.025 .N303AS
2018-12-17T00:20:00-0800 2018-12-17T00:20:57-0800 2920 47.3838 -122.3087 4.7 223 25 130.025 .N627AS
2018-12-17T00:20:00-0800 2018-12-17T00:20:57-0800 3359 47.3711 -122.3094 3.7 224 25 130.025 .N627AS
2018-12-17T00:20:00-0800 2018-12-17T00:20:57-0800 3096 47.3776 -122.309 4.5 226 25 130.025 .N627AS
2018-12-17T00:22:00-0800 2018-12-17T00:23:59-0800 7704 47.3102 -122.4053 -5.7 227 27 130.025 .N627AS
2018-12-16T23:57:00-0800 2018-12-16T23:57:37-0800 10051 47.3752 -122.0457 -11.0 227 29 130.025 .N303AS
2018-12-17T00:22:00-0800 2018-12-17T00:23:59-0800 8848 47.3102 -122.4398 -7.2 237 29 130.025 .N627AS
2018-12-16T23:56:00-0800 2018-12-16T23:57:37-0800 9394 47.3471 -122.1217 -8.7 225 29 130.025 .N303AS
2018-12-16T23:56:00-0800 2018-12-16T23:57:37-0800 9953 47.361 -122.0847 -10.5 227 30 130.025 .N303AS
2018-12-17T00:27:00-0800 2018-12-17T00:28:59-0800 20729 47.6655 -122.8693 -34.5 229 40 130.025 .N627AS
2018-12-17T00:27:00-0800 2018-12-17T00:28:59-0800 21543 47.6978 -122.9023 -37.0 227 43 130.025 .N627AS
2018-12-17T00:29:00-0800 2018-12-17T00:30:50-0800 25854 47.9379 -123.156 -43.0 210 59 130.025 .N627AS
2018-12-17T00:30:00-0800 2018-12-17T00:30:50-0800 26169 47.974 -123.1943 -42.5 206 61 130.025 .N627AS
2018-12-17T00:02:00-0800 2018-12-17T00:04:13-0800 19947 47.5565 -121.3299 -29.0 216 63 130.025 .N303AS
2018-12-17T00:30:00-0800 2018-12-17T00:30:50-0800 26512 48.0107 -123.2334 -42.7 203 67 130.025 .N627AS
2018-12-17T00:02:00-0800 2018-12-17T00:04:13-0800 21013 47.5558 -121.2717 -29.2 210 85 130.025 .N303AS